Latest Coastal Weather Observations for Port Macquarie Airport

IDN60701

Issued at 3:42 am EST Sunday 26 June 2016 (issued every 10 minutes, with the page automatically refreshed every 10 minutes)

About coastal observations | Map of coastal stations | Coastal observations for NSW | Marine services | Other Formats
Station Details ID: 060139 Name: PORT MACQUARIE AIRPORT AWS Lat: -31.43 Lon: 152.87 Height: 4.2 m
Data from the previous 72 hours. | See also: Recent months at Port Macquarie Airport
Date/Time
EST
Temp
°C
Wind Pressure Rain since
9am
mm
Weather Cloud Vis
km
Sea
Height
m
Swell
Dir  Spd
kts
Gust
kts
hPa Trend Height
m
Period
s
Dir
26/03:30am 6.3 W 10 15 1019.0 - 0.0 - - 10 - - - -
26/03:00am 6.3 W 10 13 1018.9 - 0.0 - - 10 - - - -
26/02:30am 6.0 W 8 11 1019.0 - 0.0 - - 10 - - - -
26/02:00am 6.3 W 8 11 1018.9 - 0.0 - - 10 - - - -
26/01:30am 6.4 WNW 9 12 1019.5 - 0.0 - - 10 - - - -
26/01:00am 6.8 W 9 12 1019.8 - 0.0 - - 10 - - - -
26/12:30am 7.1 W 10 14 1019.9 - 0.0 - - 10 - - - -
26/12:00am 6.7 W 7 11 1020.3 - 0.0 - - 10 - - - -
 
Date/Time
EST
Temp
°C
Wind Pressure Rain since
9am
mm
Weather Cloud Vis
km
Sea
Height
m
Swell
Dir  Spd
kts
Gust
kts
hPa Trend Height
m
Period
s
Dir
25/11:30pm 6.6 W 7 11 1020.1 - 0.0 - - 10 - - - -
25/11:00pm 6.9 W 7 10 1020.1 - 0.0 - - 10 - - - -
25/10:30pm 7.1 WNW 8 11 1020.3 - 0.0 - - 10 - - - -
25/10:00pm 7.2 WNW 9 14 1020.1 - 0.0 - - 10 - - - -
25/09:30pm 7.6 W 8 11 1020.0 - 0.0 - - 10 - - - -
25/09:00pm 6.3 W 7 8 1020.1 - 0.0 - - 10 - - - -
25/08:30pm 5.3 WNW 3 5 1020.2 - 0.0 - - 10 - - - -
25/08:00pm 6.3 SW 4 4 1020.0 - 0.0 - - 10 - - - -
25/07:30pm 5.9 SSW 3 4 1019.6 - 0.0 - - 10 - - - -
25/07:00pm 6.4 SW 4 6 1019.6 - 0.0 - - 10 - - - -
25/06:30pm 6.6 SW 5 6 1019.3 - 0.0 - - 10 - - - -
25/06:00pm 6.7 SW 6 7 1018.8 - 0.0 - - 10 - - - -
25/05:30pm 7.1 S 6 6 1018.5 - 0.0 - - 10 - - - -
25/05:00pm 9.9 SSW 4 5 1018.1 - 0.0 - - 10 - - - -
25/04:30pm 11.9 SSW 6 7 1017.8 - 0.0 - - 10 - - - -
25/04:00pm 13.6 SSW 7 10 1017.6 - 0.0 - - 10 - - - -
25/03:30pm 14.2 SW 11 14 1017.2 - 0.0 - - 10 - - - -
25/03:00pm 14.7 SW 9 15 1017.1 - 0.0 - - 10 - - - -
25/02:30pm 14.6 SW 12 17 1016.9 - 0.0 - - 10 - - - -
25/02:00pm 14.6 SW 12 17 1016.7 - 0.0 - - 10 - - - -
25/01:30pm 14.9 WSW 11 15 1016.7 - 0.0 - - 10 - - - -
25/01:00pm 14.4 SW 13 19 1016.7 - 0.0 - - 10 - - - -
25/12:30pm 14.3 SW 12 18 1016.9 - 0.0 - - 10 - - - -
25/12:00pm 14.4 SW 12 19 1017.1 - 0.0 - - 10 - - - -
25/11:30am 13.8 SW 14 20 1017.1 - 0.0 - - 10 - - - -
25/11:00am 13.3 WSW 17 23 1017.1 - 0.0 - - 10 - - - -
25/10:30am 13.0 SW 16 22 1017.4 - 0.0 - - 10 - - - -
25/10:00am 12.6 W 10 16 1017.3 - 0.0 - - 10 - - - -
25/09:30am 11.7 W 9 15 1017.3 - 0.0 - - 10 - - - -
25/09:00am 11.1 W 11 18 1016.9 - 0.0 - - 10 - - - -
25/08:30am 10.2 W 10 16 1016.5 - 0.0 - - 10 - - - -
25/08:00am 9.4 W 11 15 1016.2 - 0.0 - - 10 - - - -
25/07:30am 8.5 W 10 14 1016.0 - 0.0 - - 10 - - - -
25/07:00am 8.1 W 11 15 1015.5 - 0.0 - - 10 - - - -
25/06:30am 8.2 WNW 9 13 1015.4 - 0.0 - - 10 - - - -
25/06:00am 8.3 W 8 12 1015.1 - 0.0 - - 10 - - - -
25/05:30am 8.6 W 10 14 1014.6 - 0.0 - - 10 - - - -
25/05:00am 9.0 W 10 18 1014.1 - 0.0 - - 10 - - - -
25/04:30am 9.2 W 10 14 1014.0 - 0.0 - - 10 - - - -
25/04:00am 9.5 W 10 16 1013.6 - 0.0 - - 10 - - - -
25/03:30am 9.9 WNW 12 19 1013.5 - 0.0 - - 10 - - - -
25/03:00am 9.9 W 11 21 1013.5 - 0.0 - - 10 - - - -
25/02:30am 9.9 W 11 18 1013.0 - 0.0 - - 10 - - - -
25/02:00am 10.4 W 12 21 1012.7 - 0.0 - - 10 - - - -
25/01:30am 10.2 W 11 17 1012.3 - 0.0 - - 10 - - - -
25/01:00am 10.9 W 14 23 1012.1 - 0.0 - - 10 - - - -
25/12:30am 10.6 W 11 15 1012.3 - 0.0 - - 10 - - - -
25/12:00am 10.9 W 11 19 1012.3 - 0.0 - - 10 - - - -
 
Date/Time
EST
Temp
°C
Wind Pressure Rain since
9am
mm
Weather Cloud Vis
km
Sea
Height
m
Swell
Dir  Spd
kts
Gust
kts
hPa Trend Height
m
Period
s
Dir
24/11:30pm 11.0 W 9 17 1012.0 - 0.0 - - 10 - - - -
24/11:00pm 11.5 WNW 11 19 1011.9 - 0.0 - - 10 - - - -
24/10:30pm 11.3 W 11 17 1012.2 - 0.0 - - 10 - - - -
24/10:00pm 11.4 W 13 19 1011.7 - 0.0 - - 10 - - - -
24/09:30pm 10.9 W 11 21 1011.8 - 0.0 - - 10 - - - -
24/09:00pm 11.0 W 15 24 1011.4 - 0.0 - - 10 - - - -
24/08:44pm 11.0 W 15 25 1011.5 - 0.0 - - 10 - - - -
24/08:30pm 10.8 W 17 25 1011.3 - 0.0 - Partly cloudy 10 - - - -
24/08:10pm 11.7 W 15 27 1010.9 - 0.0 - - 10 - - - -
24/08:00pm 11.8 W 11 16 1011.0 - 0.0 - - 10 - - - -
24/07:30pm 12.3 WSW 14 19 1009.9 - 0.0 - - 10 - - - -
24/07:05pm 14.1 WSW 15 26 1009.6 - 0.0 - Partly cloudy 10 - - - -
24/07:00pm 14.1 W 14 23 1009.5 - 0.0 - Partly cloudy 10 - - - -
24/06:30pm 13.7 W 10 16 1008.6 - 0.0 - - 10 - - - -
24/06:00pm 12.7 WNW 6 9 1008.0 - 0.0 - - 10 - - - -
24/05:30pm 14.0 WNW 11 17 1007.3 - 0.0 - - 10 - - - -
24/05:00pm 14.7 W 14 23 1006.9 - 0.0 - - 10 - - - -
24/04:30pm 15.3 W 16 30 1006.5 - 0.0 - - 10 - - - -
24/04:00pm 16.1 W 18 37 1006.1 - 0.0 - Partly cloudy 10 - - - -
24/03:30pm 17.2 WSW 19 29 1005.5 - 0.0 - Partly cloudy 10 - - - -
24/03:29pm 17.4 WSW 19 29 1005.3 - 0.0 - Partly cloudy 10 - - - -
24/03:22pm 18.0 W 17 26 1005.1 - 0.0 - Partly cloudy 10 - - - -
24/03:00pm 19.5 NW 15 27 1004.2 - 0.0 - - 10 - - - -
24/02:35pm 20.1 WNW 15 27 1003.8 - 0.0 - Partly cloudy 10 - - - -
24/02:30pm 20.4 WNW 12 19 1003.7 - 0.0 - Partly cloudy 10 - - - -
24/02:00pm 20.4 NW 17 27 1003.5 - 0.0 - - 10 - - - -
24/01:56pm 20.3 NW 16 27 1003.5 - 0.0 - - 10 - - - -
24/01:46pm 20.3 NW 19 28 1003.3 - 0.0 - - 10 - - - -
24/01:30pm 20.6 WNW 19 32 1003.4 - 0.0 - Partly cloudy 10 - - - -
24/01:20pm 20.7 W 15 25 1003.3 - 0.0 - Partly cloudy 10 - - - -
24/01:00pm 21.4 WNW 13 21 1003.3 - 0.0 - - 10 - - - -
24/12:30pm 21.5 WNW 13 19 1003.7 - 0.0 - - 10 - - - -
24/12:00pm 21.1 W 9 17 1004.1 - 0.0 - - 10 - - - -
24/11:30am 20.0 WSW 10 15 1004.7 - 0.0 - - 10 - - - -
24/11:00am 18.7 W 5 7 1005.3 - 0.0 - Partly cloudy 10 - - - -
24/10:30am 17.4 WNW 6 8 1005.6 - 0.0 - Partly cloudy 10 - - - -
24/10:00am 17.1 NNW 5 6 1005.7 - 0.0 - - 10 - - - -
24/09:30am 14.9 NW 4 8 1006.1 - 0.0 - Partly cloudy 10 - - - -
24/09:00am 13.6 NW 4 7 1006.3 - 0.0 - Mostly clear 10 - - - -
24/08:30am 11.7 NNW 4 6 1006.4 - 0.0 - - 10 - - - -
24/08:00am 10.1 NW 5 6 1006.4 - 0.0 - - 10 - - - -
24/07:30am 9.3 NNW 3 4 1006.1 - 0.0 - Partly cloudy 10 - - - -
24/07:00am 7.2 CALM 0 0 1006.0 - 0.0 - Partly cloudy 10 - - - -
24/06:30am 8.1 N 1 4 1006.1 - 0.0 - - 10 - - - -
24/06:00am 8.2 CALM 0 0 1006.1 - 0.0 - - 10 - - - -
24/05:30am 9.0 NNW 3 4 1005.9 - 0.0 - Partly cloudy 10 - - - -
24/05:00am 8.8 NW 5 7 1005.9 - 0.0 - - 10 - - - -
24/04:30am 9.5 CALM 0 0 1006.0 - 0.0 - - 10 - - - -
24/04:00am 10.0 NNW 4 5 1006.3 - 0.0 - Partly cloudy 10 - - - -
24/03:30am 10.5 NNW 1 4 1006.4 - 0.0 - Partly cloudy 10 - - - -
24/03:00am 10.7 NNW 4 6 1006.8 - 0.0 - Cloudy 10 - - - -
24/02:30am 9.5 CALM 0 0 1006.7 - 0.0 - Cloudy 10 - - - -
24/02:00am 8.5 CALM 0 0 1006.8 - 0.0 - Cloudy 10 - - - -
24/01:30am 8.5 CALM 0 0 1007.4 - 0.0 - Cloudy 10 - - - -
24/01:00am 8.4 CALM 0 0 1007.5 - 0.0 - Partly cloudy 10 - - - -
24/12:30am 8.6 CALM 0 0 1007.7 - 0.0 - - 9 - - - -
24/12:00am 8.2 CALM 0 0 1008.1 - 0.0 - Partly cloudy 10 - - - -
 
Date/Time
EST
Temp
°C
Wind Pressure Rain since
9am
mm
Weather Cloud Vis
km
Sea
Height
m
Swell
Dir  Spd
kts
Gust
kts
hPa Trend Height
m
Period
s
Dir
23/11:30pm 9.3 CALM 0 0 1008.7 - 0.0 - Partly cloudy 10 - - - -
23/11:00pm 9.5 NNW 3 4 1008.8 - 0.0 - Partly cloudy 10 - - - -
23/10:30pm 8.7 NW 2 3 1009.2 - 0.0 - Partly cloudy 10 - - - -
23/10:00pm 9.3 NW 3 5 1009.4 - 0.0 - - 10 - - - -
23/09:30pm 8.9 N 1 4 1009.3 - 0.0 - - 10 - - - -
23/09:00pm 9.3 NNE 3 4 1009.3 - 0.0 - Cloudy 10 - - - -
23/08:31pm 8.1 CALM 0 0 1009.8 - 0.0 - - 10 - - - -
23/08:30pm 7.9 CALM 0 0 1009.8 - 0.0 - - 10 - - - -
23/08:06pm 7.4 CALM 0 0 1009.7 - 0.0 - - 3 - - - -
23/08:00pm 7.5 CALM 0 0 1009.8 - 0.0 - - 10 - - - -
23/07:30pm 8.3 CALM 0 0 1009.8 - 0.0 - - 10 - - - -
23/07:11pm 9.3 CALM 0 0 1009.9 - 0.0 - Partly cloudy 10 - - - -
23/07:00pm 9.1 CALM 0 0 1009.8 - 0.0 - Partly cloudy 2 - - - -
23/06:42pm 9.4 CALM 0 0 1010.0 - 0.0 - - 3 - - - -
23/06:30pm 9.7 CALM 0 0 1010.1 - 0.0 - - 10 - - - -
23/06:00pm 10.9 CALM 0 1 1009.9 - 0.0 - Mostly clear 10 - - - -
23/05:30pm 12.2 CALM 0 0 1009.9 - 0.0 - - 10 - - - -
23/05:00pm 13.5 CALM 0 0 1009.7 - 0.0 - Partly cloudy 10 - - - -
23/04:30pm 15.2 CALM 0 0 1009.7 - 0.0 - - 10 - - - -
23/04:00pm 16.8 CALM 0 3 1009.7 - 0.0 - - 10 - - - -
23/03:30pm 17.2 CALM 0 1 1009.7 - 0.0 - - 10 - - - -
23/03:00pm 17.6 N 4 5 1010.0 - 0.0 - Partly cloudy 10 - - - -
23/02:30pm 17.3 NW 3 4 1010.3 - 0.0 - - 10 - - - -
23/02:00pm 16.8 WNW 4 5 1010.5 - 0.0 - - 10 - - - -
23/01:30pm 17.1 WNW 4 6 1011.2 - 0.0 - - 10 - - - -
23/01:00pm 16.7 NNW 1 3 1011.1 - 0.0 - - 10 - - - -
23/12:30pm 16.3 NW 3 5 1011.6 - 0.0 - - 10 - - - -
23/12:00pm 16.2 WNW 4 7 1012.7 - 0.0 - Partly cloudy 10 - - - -
23/11:30am 16.1 NNW 4 6 1013.0 - 0.0 - - 10 - - - -
23/11:00am 14.6 NNW 5 6 1013.4 - 0.0 - - 10 - - - -
23/10:30am 14.1 N 4 6 1014.1 - 0.0 - - 10 - - - -
23/10:00am 11.8 NW 3 5 1014.2 - 0.0 - - 10 - - - -
23/09:30am 10.6 WNW 4 6 1014.7 - 0.0 - - 10 - - - -
23/09:00am 9.7 N 4 6 1014.2 - 0.0 - Cloudy 10 - - - -
23/08:30am 8.9 NNW 4 5 1014.9 - 0.0 - - 10 - - - -
23/08:00am 8.1 CALM 0 0 1014.8 - 0.0 - - 10 - - - -
23/07:30am 7.4 NW 1 4 1014.3 - 0.0 - - 10 - - - -
23/07:00am 6.6 NW 3 5 1013.6 - 0.0 - - 10 - - - -
23/06:30am 6.2 NW 4 5 1013.7 - 0.0 - - 10 - - - -
23/06:00am 5.6 CALM 0 0 1013.6 - 0.0 - Partly cloudy 10 - - - -
23/05:30am 5.6 CALM 0 0 1013.9 - 0.0 - - 10 - - - -
23/05:00am 5.3 CALM 0 0 1013.3 - 0.0 - - 10 - - - -
23/04:30am 6.5 NW 4 6 1013.2 - 0.0 - - 10 - - - -
23/04:00am 6.4 WNW 2 3 1013.6 - 0.0 - - 10 - - - -

Other Formats:

Comma delimited format used in spreadsheet applications
http://www.bom.gov.au/fwo/IDN60701/IDN60701.94786.axf

JavaScript Object Notation format (JSON) in row-major order
http://www.bom.gov.au/fwo/IDN60701/IDN60701.94786.json